LBT2105 DTTA-DAAG
Flight info
| Callsign | LBT2105 |
|---|---|
| Flight time | N/A |
| Altitude | 35000 |
| Route | KEMIR2A KEMIR A411 BJA/N0448F380 DCT 37N004E DCT ZEM |
| Aircraft | A320/M-SDE3FGHIRWY/LB1 |
Departure
| Time | N/A |
|---|---|
| Airport | Tunis Carthage International Airport (DTTA) |
Arrival
| Time | 2026-04-30 22:23 |
|---|---|
| Airport | Houari Boumediene Airport (DAAG) |
| Time | Latitude | Longitude | Altitude | Speed | Heading |
|---|---|---|---|---|---|
| 2026-04-30 21:42 | 36.82721 | 7.36316 | 35125 ft | 395 kts | 269° |
| 2026-04-30 21:42 | 36.82675 | 7.32878 | 35127 ft | 396 kts | 269° |
| 2026-04-30 21:43 | 36.82597 | 7.27182 | 35129 ft | 396 kts | 269° |
| 2026-04-30 21:43 | 36.82473 | 7.19134 | 35129 ft | 396 kts | 269° |
| 2026-04-30 21:44 | 36.82363 | 7.12304 | 35129 ft | 396 kts | 268° |
| 2026-04-30 21:44 | 36.82252 | 7.05433 | 35132 ft | 396 kts | 268° |
| 2026-04-30 21:45 | 36.82142 | 6.98550 | 35130 ft | 396 kts | 269° |
| 2026-04-30 21:45 | 36.82024 | 6.91667 | 35130 ft | 396 kts | 268° |
| 2026-04-30 21:46 | 36.81903 | 6.84787 | 35132 ft | 396 kts | 268° |
| 2026-04-30 21:46 | 36.81783 | 6.77891 | 35126 ft | 397 kts | 268° |
| 2026-04-30 21:47 | 36.81649 | 6.70998 | 35128 ft | 397 kts | 268° |
| 2026-04-30 21:47 | 36.81513 | 6.64145 | 35128 ft | 397 kts | 268° |
| 2026-04-30 21:48 | 36.81380 | 6.57242 | 35127 ft | 397 kts | 268° |
| 2026-04-30 21:48 | 36.81245 | 6.50337 | 35100 ft | 398 kts | 268° |
| 2026-04-30 21:49 | 36.81092 | 6.43405 | 35087 ft | 400 kts | 268° |
| 2026-04-30 21:49 | 36.80936 | 6.36479 | 35086 ft | 402 kts | 268° |
| 2026-04-30 21:50 | 36.80783 | 6.29496 | 35093 ft | 403 kts | 268° |
| 2026-04-30 21:50 | 36.80624 | 6.22495 | 35100 ft | 404 kts | 268° |
| 2026-04-30 21:51 | 36.80485 | 6.16661 | 35098 ft | 404 kts | 268° |
| 2026-04-30 21:51 | 36.80310 | 6.09649 | 35104 ft | 404 kts | 267° |
| 2026-04-30 21:52 | 36.80136 | 6.02647 | 35120 ft | 404 kts | 267° |
| 2026-04-30 21:52 | 36.79970 | 5.95642 | 35125 ft | 403 kts | 267° |
| 2026-04-30 21:53 | 36.79795 | 5.88648 | 35125 ft | 403 kts | 267° |
| 2026-04-30 21:53 | 36.79180 | 5.81714 | 35124 ft | 402 kts | 262° |
| 2026-04-30 21:54 | 36.78484 | 5.74836 | 35124 ft | 402 kts | 262° |
| 2026-04-30 21:54 | 36.77790 | 5.67907 | 35121 ft | 401 kts | 262° |
| 2026-04-30 21:55 | 36.77099 | 5.60997 | 35111 ft | 401 kts | 262° |
| 2026-04-30 21:55 | 36.76401 | 5.54138 | 35110 ft | 400 kts | 262° |
| 2026-04-30 21:56 | 36.75689 | 5.47261 | 35110 ft | 400 kts | 262° |
| 2026-04-30 21:56 | 36.74978 | 5.40374 | 35112 ft | 400 kts | 262° |
| 2026-04-30 21:57 | 36.74267 | 5.33489 | 35113 ft | 400 kts | 262° |
| 2026-04-30 21:57 | 36.73544 | 5.26607 | 35014 ft | 401 kts | 261° |
| 2026-04-30 21:58 | 36.73181 | 5.23159 | 34778 ft | 402 kts | 261° |
| 2026-04-30 21:58 | 36.72821 | 5.19736 | 34538 ft | 403 kts | 261° |
| 2026-04-30 21:58 | 36.72455 | 5.16261 | 34304 ft | 404 kts | 261° |
| 2026-04-30 21:58 | 36.72091 | 5.12782 | 34060 ft | 406 kts | 263° |
| 2026-04-30 21:59 | 36.71976 | 5.09253 | 33790 ft | 408 kts | 270° |
| 2026-04-30 21:59 | 36.72279 | 5.05719 | 33513 ft | 411 kts | 278° |
| 2026-04-30 21:59 | 36.72994 | 5.02257 | 33250 ft | 415 kts | 285° |
| 2026-04-30 22:00 | 36.74852 | 4.95414 | 32725 ft | 417 kts | 285° |
| 2026-04-30 22:00 | 36.76693 | 4.88561 | 32217 ft | 421 kts | 284° |
| 2026-04-30 22:00 | 36.77616 | 4.85103 | 31960 ft | 420 kts | 284° |
| 2026-04-30 22:01 | 36.78539 | 4.81645 | 31710 ft | 419 kts | 284° |
| 2026-04-30 22:01 | 36.79458 | 4.78200 | 31459 ft | 417 kts | 284° |
| 2026-04-30 22:01 | 36.80372 | 4.74777 | 31210 ft | 415 kts | 284° |
| 2026-04-30 22:01 | 36.81280 | 4.71363 | 30962 ft | 413 kts | 284° |
| 2026-04-30 22:02 | 36.82182 | 4.67960 | 30715 ft | 412 kts | 284° |
| 2026-04-30 22:02 | 36.83085 | 4.64567 | 30474 ft | 410 kts | 285° |
| 2026-04-30 22:02 | 36.83982 | 4.61201 | 29913 ft | 406 kts | 285° |
| 2026-04-30 22:02 | 36.84857 | 4.57913 | 29266 ft | 402 kts | 285° |
| 2026-04-30 22:03 | 36.85730 | 4.54619 | 28651 ft | 398 kts | 285° |
| 2026-04-30 22:03 | 36.86596 | 4.51344 | 28041 ft | 395 kts | 285° |
| 2026-04-30 22:03 | 36.87448 | 4.48099 | 27440 ft | 392 kts | 285° |
| 2026-04-30 22:03 | 36.88292 | 4.44877 | 26847 ft | 389 kts | 284° |
| 2026-04-30 22:04 | 36.89131 | 4.41668 | 26254 ft | 387 kts | 285° |
| 2026-04-30 22:04 | 36.89964 | 4.38491 | 25686 ft | 385 kts | 285° |
| 2026-04-30 22:04 | 36.91628 | 4.32171 | 24584 ft | 380 kts | 285° |
| 2026-04-30 22:05 | 36.92448 | 4.29039 | 24047 ft | 378 kts | 285° |
| 2026-04-30 22:05 | 36.93264 | 4.25922 | 23496 ft | 376 kts | 285° |
| 2026-04-30 22:05 | 36.94073 | 4.22828 | 22958 ft | 373 kts | 285° |
| 2026-04-30 22:05 | 36.94875 | 4.19766 | 22471 ft | 369 kts | 285° |
| 2026-04-30 22:06 | 36.95660 | 4.16768 | 21996 ft | 365 kts | 285° |
| 2026-04-30 22:06 | 36.97217 | 4.10777 | 21012 ft | 359 kts | 285° |
| 2026-04-30 22:06 | 36.97982 | 4.07814 | 20525 ft | 357 kts | 285° |
| 2026-04-30 22:07 | 36.98718 | 4.04863 | 20018 ft | 354 kts | 281° |
| 2026-04-30 22:07 | 36.99036 | 4.01842 | 19522 ft | 349 kts | 268° |
| 2026-04-30 22:07 | 36.98795 | 3.98832 | 19024 ft | 346 kts | 256° |
| 2026-04-30 22:07 | 36.98035 | 3.95991 | 18528 ft | 344 kts | 244° |
| 2026-04-30 22:08 | 36.96864 | 3.93389 | 17988 ft | 343 kts | 239° |
| 2026-04-30 22:08 | 36.95645 | 3.90835 | 17484 ft | 341 kts | 239° |
| 2026-04-30 22:08 | 36.94433 | 3.88294 | 16996 ft | 338 kts | 239° |
| 2026-04-30 22:08 | 36.93232 | 3.85774 | 16515 ft | 337 kts | 239° |
| 2026-04-30 22:09 | 36.92052 | 3.83295 | 16040 ft | 335 kts | 239° |
| 2026-04-30 22:09 | 36.90861 | 3.80799 | 15571 ft | 334 kts | 239° |
| 2026-04-30 22:09 | 36.89668 | 3.78302 | 15094 ft | 334 kts | 239° |
| 2026-04-30 22:09 | 36.88476 | 3.75811 | 14616 ft | 333 kts | 239° |
| 2026-04-30 22:10 | 36.87288 | 3.73330 | 14136 ft | 333 kts | 239° |
| 2026-04-30 22:10 | 36.86099 | 3.70845 | 13639 ft | 333 kts | 239° |
| 2026-04-30 22:10 | 36.84909 | 3.68356 | 13133 ft | 332 kts | 239° |
| 2026-04-30 22:10 | 36.83729 | 3.65890 | 12646 ft | 330 kts | 239° |
| 2026-04-30 22:11 | 36.81382 | 3.61003 | 11660 ft | 327 kts | 239° |
| 2026-04-30 22:11 | 36.80213 | 3.58574 | 11157 ft | 326 kts | 239° |
| 2026-04-30 22:11 | 36.79123 | 3.56098 | 10662 ft | 325 kts | 245° |
| 2026-04-30 22:12 | 36.78206 | 3.53634 | 10391 ft | 305 kts | 245° |
| 2026-04-30 22:12 | 36.77312 | 3.51251 | 10085 ft | 296 kts | 245° |
| 2026-04-30 22:12 | 36.76458 | 3.48987 | 9949 ft | 290 kts | 245° |
| 2026-04-30 22:12 | 36.75601 | 3.46714 | 9806 ft | 289 kts | 245° |
| 2026-04-30 22:13 | 36.74744 | 3.44442 | 9557 ft | 291 kts | 245° |
| 2026-04-30 22:13 | 36.73883 | 3.42157 | 9057 ft | 288 kts | 245° |
| 2026-04-30 22:13 | 36.73035 | 3.39906 | 8415 ft | 284 kts | 244° |
| 2026-04-30 22:13 | 36.72202 | 3.37694 | 7873 ft | 281 kts | 244° |
| 2026-04-30 22:14 | 36.71374 | 3.35503 | 7316 ft | 279 kts | 244° |
| 2026-04-30 22:14 | 36.70551 | 3.33321 | 6789 ft | 279 kts | 244° |
| 2026-04-30 22:14 | 36.69718 | 3.31116 | 6281 ft | 280 kts | 243° |
| 2026-04-30 22:14 | 36.68892 | 3.28935 | 5897 ft | 276 kts | 243° |
| 2026-04-30 22:15 | 36.68090 | 3.26817 | 5324 ft | 273 kts | 243° |
| 2026-04-30 22:15 | 36.67274 | 3.24669 | 4587 ft | 273 kts | 243° |
| 2026-04-30 22:15 | 36.66466 | 3.22543 | 3948 ft | 269 kts | 243° |
| 2026-04-30 22:15 | 36.65672 | 3.20452 | 3407 ft | 266 kts | 244° |
| 2026-04-30 22:16 | 36.64888 | 3.18391 | 2959 ft | 258 kts | 244° |
| 2026-04-30 22:16 | 36.64157 | 3.16471 | 2909 ft | 235 kts | 244° |
| 2026-04-30 22:17 | 36.62247 | 3.11454 | 2693 ft | 199 kts | 244° |
| 2026-04-30 22:17 | 36.61666 | 3.09929 | 2635 ft | 187 kts | 245° |
| 2026-04-30 22:17 | 36.60746 | 3.07259 | 2440 ft | 152 kts | 262° |
| 2026-04-30 22:18 | 36.60858 | 3.05999 | 2401 ft | 146 kts | 297° |
| 2026-04-30 22:18 | 36.62464 | 3.04863 | 2415 ft | 139 kts | 8° |
| 2026-04-30 22:19 | 36.63810 | 3.06369 | 2412 ft | 139 kts | 77° |
| 2026-04-30 22:19 | 36.63760 | 3.07562 | 2420 ft | 139 kts | 101° |
| 2026-04-30 22:19 | 36.63358 | 3.09926 | 2411 ft | 140 kts | 100° |
| 2026-04-30 22:20 | 36.63307 | 3.11124 | 2356 ft | 139 kts | 83° |
| 2026-04-30 22:20 | 36.64072 | 3.13272 | 2007 ft | 136 kts | 50° |
| 2026-04-30 22:20 | 36.64656 | 3.14203 | 1779 ft | 136 kts | 50° |
| 2026-04-30 22:21 | 36.65246 | 3.15119 | 1555 ft | 136 kts | 50° |
| 2026-04-30 22:21 | 36.65841 | 3.16032 | 1330 ft | 136 kts | 50° |
| 2026-04-30 22:21 | 36.66439 | 3.16940 | 1104 ft | 136 kts | 51° |
| 2026-04-30 22:21 | 36.67003 | 3.17883 | 859 ft | 136 kts | 55° |
| 2026-04-30 22:22 | 36.67543 | 3.18846 | 707 ft | 136 kts | 55° |
| 2026-04-30 22:22 | 36.68078 | 3.19817 | 580 ft | 135 kts | 55° |
| 2026-04-30 22:22 | 36.68624 | 3.20755 | 402 ft | 136 kts | 52° |
| 2026-04-30 22:22 | 36.69190 | 3.21698 | 209 ft | 136 kts | 53° |
| 2026-04-30 22:23 | 36.69752 | 3.22613 | 82 ft | 124 kts | 52° |
| 2026-04-30 22:23 | 36.70183 | 3.23315 | 81 ft | 66 kts | 52° |
| 2026-04-30 22:23 | 36.70308 | 3.23455 | 78 ft | 14 kts | 342° |
| 2026-04-30 22:23 | 36.70355 | 3.23416 | 74 ft | 3 kts | 320° |
| 2026-04-30 22:24 | 36.70415 | 3.23357 | 64 ft | 16 kts | 323° |
| 2026-04-30 22:24 | 36.70471 | 3.23244 | 65 ft | 17 kts | 245° |
| 2026-04-30 22:24 | 36.70392 | 3.23115 | 63 ft | 20 kts | 233° |
| 2026-04-30 22:24 | 36.70303 | 3.22966 | 63 ft | 23 kts | 232° |
| 2026-04-30 22:25 | 36.69726 | 3.20477 | 61 ft | 0 kts | 69° |